Time;durP1;ratioP1;P1;durP2;ratioP2;P2;SDS_P1;SDS_P2;PMS_P1;PMS_P2;Temp;Humidity;BMP_temperature;BMP_pressure;BME280_temperature;BME280_humidity;BME280_pressure;Samples;Min_cycle;Max_cycle;Signal;HPM_P1;HPM_P2
2023/05/27 00:01:47;;;;;;;;;;;8.20;99.90;;;;;;5035569;28;19931;-87
2023/05/27 00:04:13;;;;;;;;;;;10.90;99.90;;;;;;5020222;28;19999;-87
2023/05/27 00:06:38;;;;;;;;;;;8.30;99.90;;;;;;5017209;28;20044;-87
2023/05/27 00:09:04;;;;;;;;;;;8.30;99.90;;;;;;5035360;28;19932;-86
2023/05/27 00:11:30;;;;;;;;;;;8.30;99.90;;;;;;5008976;28;19925;-87
2023/05/27 00:13:58;;;;;;;;;;;8.20;99.90;;;;;;5034793;28;19925;-87
2023/05/27 00:16:24;;;;;;;;;;;8.10;99.90;;;;;;4983327;28;20383;-86
2023/05/27 00:18:52;;;;;;;;;;;8.40;99.90;;;;;;5041338;28;19924;-88
2023/05/27 00:21:18;;;;;;;;;;;7.90;99.90;;;;;;5053931;28;19925;-87
2023/05/27 00:23:45;;;;;;;;;;;9.00;99.90;;;;;;5039702;28;19947;-89
2023/05/27 00:26:18;;;;;;;;;;;7.70;99.90;;;;;;5054359;28;19928;-88
2023/05/27 00:28:44;;;;;;;;;;;8.30;99.90;;;;;;5002722;28;20035;-88
2023/05/27 00:31:09;;;;;;;;;;;7.50;99.90;;;;;;5032670;28;20004;-88
2023/05/27 00:33:45;;;;;;;;;;;7.30;99.90;;;;;;5011293;28;19976;-87
2023/05/27 00:36:11;;;;;;;;;;;7.50;99.90;;;;;;5012310;28;19944;-86
2023/05/27 00:38:36;;;;;;;;;;;7.50;99.90;;;;;;5013070;28;19935;-87
2023/05/27 00:41:03;;;;;;;;;;;5.20;99.90;;;;;;5016979;28;19929;-87
2023/05/27 00:43:32;;;;;;;;;;;7.90;99.90;;;;;;5029923;28;19925;-87
2023/05/27 00:45:58;;;;;;;;;;;6.70;99.90;;;;;;5016848;28;20024;-87
2023/05/27 00:48:29;;;;;;;;;;;7.60;99.90;;;;;;5017550;28;20402;-87
2023/05/27 00:50:55;;;;;;;;;;;6.70;99.90;;;;;;5011463;28;20007;-87
2023/05/27 00:53:24;;;;;;;;;;;7.20;99.90;;;;;;5013148;28;19932;-88
2023/05/27 00:55:59;;;;;;;;;;;7.30;99.90;;;;;;5003241;28;20338;-87
2023/05/27 00:58:27;;;;;;;;;;;7.00;99.90;;;;;;5025273;28;20012;-87
2023/05/27 01:00:52;;;;;;;;;;;6.50;99.90;;;;;;5001446;28;19971;-86
2023/05/27 01:03:20;;;;;;;;;;;7.00;99.90;;;;;;5035162;28;19925;-88
2023/05/27 01:05:46;;;;;;;;;;;5.80;99.90;;;;;;5038428;28;19976;-87
2023/05/27 01:08:20;;;;;;;;;;;7.50;99.90;;;;;;5010134;28;19925;-88
2023/05/27 01:10:52;;;;;;;;;;;7.40;99.90;;;;;;5005699;28;20374;-87
2023/05/27 01:13:27;;;;;;;;;;;4.80;99.90;;;;;;5018218;28;19925;-87
2023/05/27 01:16:02;;;;;;;;;;;6.50;99.90;;;;;;5018509;28;20270;-87
2023/05/27 01:18:31;;;;;;;;;;;5.20;99.90;;;;;;5010183;28;19932;-87
2023/05/27 01:21:02;;;;;;;;;;;7.30;99.90;;;;;;5035300;28;20087;-87
2023/05/27 01:23:30;;;;;;;;;;;6.30;99.90;;;;;;5037367;28;19960;-87
2023/05/27 01:25:56;;;;;;;;;;;4.70;99.90;;;;;;5022787;28;19925;-87
2023/05/27 01:28:27;;;;;;;;;;;6.50;99.90;;;;;;5029451;28;19951;-87
2023/05/27 01:30:55;;;;;;;;;;;4.20;99.90;;;;;;5019623;28;19963;-87
2023/05/27 01:33:23;;;;;;;;;;;6.00;99.90;;;;;;5006334;28;20019;-88
2023/05/27 01:35:53;;;;;;;;;;;5.80;99.90;;;;;;5021345;28;19929;-87
2023/05/27 01:38:22;;;;;;;;;;;6.20;99.90;;;;;;5040474;28;19939;-87
2023/05/27 01:40:51;;;;;;;;;;;5.90;99.90;;;;;;5030720;28;19929;-87
2023/05/27 01:43:18;;;;;;;;;;;6.20;99.90;;;;;;5046464;28;20410;-90
2023/05/27 01:45:46;;;;;;;;;;;6.40;99.90;;;;;;5035663;28;19931;-87
2023/05/27 01:48:12;;;;;;;;;;;6.30;99.90;;;;;;5048407;28;19928;-87
2023/05/27 01:50:40;;;;;;;;;;;6.60;99.90;;;;;;5030824;28;19932;-87
2023/05/27 01:53:06;;;;;;;;;;;6.60;99.90;;;;;;5047360;28;20329;-87
2023/05/27 01:55:36;;;;;;;;;;;6.80;99.90;;;;;;5028589;28;19980;-86
2023/05/27 01:58:09;;;;;;;;;;;6.90;99.90;;;;;;5021941;28;19931;-87
2023/05/27 02:00:37;;;;;;;;;;;7.20;99.90;;;;;;4998070;28;20059;-86
2023/05/27 02:03:05;;;;;;;;;;;7.40;99.90;;;;;;5037620;28;19975;-86
2023/05/27 02:05:31;;;;;;;;;;;7.20;99.90;;;;;;5036694;28;19932;-87
2023/05/27 02:08:00;;;;;;;;;;;7.50;99.90;;;;;;5020711;28;19929;-87
2023/05/27 02:10:28;;;;;;;;;;;7.40;99.90;;;;;;5004724;28;19932;-87
2023/05/27 02:12:53;;;;;;;;;;;8.40;99.90;;;;;;5013818;28;20449;-87
2023/05/27 02:15:23;;;;;;;;;;;7.30;99.90;;;;;;5036716;28;20019;-87
2023/05/27 02:18:05;;;;;;;;;;;7.30;99.90;;;;;;5036998;28;19928;-86
2023/05/27 02:20:30;;;;;;;;;;;5.30;99.90;;;;;;5037220;28;20034;-86
2023/05/27 02:22:56;;;;;;;;;;;7.60;99.90;;;;;;5006920;28;19961;-87
2023/05/27 02:25:22;;;;;;;;;;;7.30;99.90;;;;;;5012020;28;19926;-87
2023/05/27 02:27:50;;;;;;;;;;;7.20;99.90;;;;;;5043533;28;20032;-87
2023/05/27 02:30:15;;;;;;;;;;;7.30;99.90;;;;;;5020047;28;20290;-87
2023/05/27 02:32:44;;;;;;;;;;;7.50;99.90;;;;;;5036723;28;19924;-87
2023/05/27 02:35:15;;;;;;;;;;;7.70;99.90;;;;;;4998544;28;19951;-87
2023/05/27 02:37:50;;;;;;;;;;;7.30;99.90;;;;;;5030608;28;19939;-86
2023/05/27 02:40:28;;;;;;;;;;;7.70;99.90;;;;;;5036795;28;19932;-86
2023/05/27 02:42:55;;;;;;;;;;;7.40;99.90;;;;;;5036226;28;19932;-86
2023/05/27 02:45:23;;;;;;;;;;;7.40;99.90;;;;;;5020409;28;20024;-86
2023/05/27 02:47:52;;;;;;;;;;;5.70;99.90;;;;;;5036543;28;20023;-87
2023/05/27 02:50:17;;;;;;;;;;;8.10;99.90;;;;;;5025594;28;19960;-87
2023/05/27 02:52:43;;;;;;;;;;;7.70;99.90;;;;;;5020073;28;20351;-87
2023/05/27 02:55:09;;;;;;;;;;;11.00;99.90;;;;;;5020223;28;19925;-86
2023/05/27 02:57:35;;;;;;;;;;;8.30;99.90;;;;;;5036862;28;19925;-87
2023/05/27 03:00:01;;;;;;;;;;;7.90;99.90;;;;;;5019664;28;19931;-86
2023/05/27 03:02:26;;;;;;;;;;;7.80;99.90;;;;;;5035835;28;19935;-87
2023/05/27 03:04:55;;;;;;;;;;;8.00;99.90;;;;;;5017071;28;20007;-86
2023/05/27 03:07:21;;;;;;;;;;;7.80;99.90;;;;;;5020410;28;19925;-87
2023/05/27 03:09:46;;;;;;;;;;;7.90;99.90;;;;;;5035702;28;19935;-87
2023/05/27 03:12:12;;;;;;;;;;;5.70;99.90;;;;;;5036765;28;19928;-87
2023/05/27 03:14:38;;;;;;;;;;;7.70;99.90;;;;;;5012301;28;20317;-87
2023/05/27 03:17:03;;;;;;;;;;;7.60;99.90;;;;;;5025766;28;19972;-86
2023/05/27 03:19:32;;;;;;;;;;;7.90;99.90;;;;;;5016333;28;19925;-87
2023/05/27 03:21:58;;;;;;;;;;;6.50;99.90;;;;;;5026459;28;19964;-87
2023/05/27 03:24:26;;;;;;;;;;;7.80;99.90;;;;;;5004558;28;20336;-87
2023/05/27 03:26:55;;;;;;;;;;;4.90;99.90;;;;;;5019530;28;19932;-87
2023/05/27 03:29:23;;;;;;;;;;;5.70;99.90;;;;;;5019081;28;20375;-87
2023/05/27 03:31:49;;;;;;;;;;;5.90;99.90;;;;;;5018211;28;19931;-87
2023/05/27 03:34:14;;;;;;;;;;;7.60;99.90;;;;;;5033749;28;19929;-87
2023/05/27 03:36:42;;;;;;;;;;;7.70;99.90;;;;;;5036614;28;19924;-86
2023/05/27 03:39:08;;;;;;;;;;;9.90;99.90;;;;;;5037155;28;19925;-86
2023/05/27 03:41:36;;;;;;;;;;;8.10;99.90;;;;;;5019826;28;20401;-86
2023/05/27 03:44:02;;;;;;;;;;;7.50;99.90;;;;;;5018908;28;20567;-87
2023/05/27 03:46:28;;;;;;;;;;;7.90;99.90;;;;;;5035607;28;20058;-87
2023/05/27 03:48:56;;;;;;;;;;;7.50;99.90;;;;;;5032073;28;19929;-86
2023/05/27 03:51:21;;;;;;;;;;;7.90;99.90;;;;;;5035624;28;19929;-87
2023/05/27 03:53:49;;;;;;;;;;;7.50;99.90;;;;;;5018605;28;19948;-87
2023/05/27 03:56:15;;;;;;;;;;;7.60;99.90;;;;;;4994144;28;19948;-87
2023/05/27 03:58:47;;;;;;;;;;;6.80;99.90;;;;;;5029916;28;19932;-87
2023/05/27 04:01:13;;;;;;;;;;;7.70;99.90;;;;;;5024573;28;19925;-87
2023/05/27 04:03:39;;;;;;;;;;;7.70;99.90;;;;;;5017947;28;19928;-86
2023/05/27 04:06:05;;;;;;;;;;;7.70;99.90;;;;;;5009684;28;19976;-87
2023/05/27 04:08:31;;;;;;;;;;;7.80;99.90;;;;;;4999313;28;19933;-86
2023/05/27 04:10:57;;;;;;;;;;;9.20;99.90;;;;;;5018398;28;19929;-87
2023/05/27 04:13:25;;;;;;;;;;;7.90;99.90;;;;;;5002505;28;19951;-87
2023/05/27 04:15:51;;;;;;;;;;;8.00;99.90;;;;;;5022872;28;20031;-87
2023/05/27 04:18:22;;;;;;;;;;;8.60;99.90;;;;;;5008400;28;20288;-88
2023/05/27 04:20:50;;;;;;;;;;;7.80;99.90;;;;;;5010892;28;19925;-87
2023/05/27 04:23:18;;;;;;;;;;;8.20;99.90;;;;;;5025128;28;19924;-87
2023/05/27 04:25:44;;;;;;;;;;;8.30;99.90;;;;;;5032984;28;19974;-87
2023/05/27 04:28:12;;;;;;;;;;;8.40;99.90;;;;;;5025578;28;19933;-87
2023/05/27 04:30:39;;;;;;;;;;;10.40;99.90;;;;;;5031260;28;19932;-89
2023/05/27 04:33:07;;;;;;;;;;;8.50;99.90;;;;;;5036119;28;19925;-88
2023/05/27 04:35:33;;;;;;;;;;;9.10;99.90;;;;;;5035748;28;19925;-86
2023/05/27 04:38:01;;;;;;;;;;;8.70;99.90;;;;;;5044244;28;20362;-87
2023/05/27 04:40:30;;;;;;;;;;;6.30;99.90;;;;;;5017209;28;20019;-86
2023/05/27 04:43:00;;;;;;;;;;;9.00;99.90;;;;;;5053677;28;19933;-87
2023/05/27 04:45:26;;;;;;;;;;;8.80;99.90;;;;;;5046137;28;19933;-87
2023/05/27 04:47:52;;;;;;;;;;;9.10;99.90;;;;;;5022648;28;19925;-88
2023/05/27 04:50:20;;;;;;;;;;;8.80;99.90;;;;;;5021841;28;19931;-87
2023/05/27 04:52:51;;;;;;;;;;;9.40;99.90;;;;;;5026344;28;20397;-87
2023/05/27 04:55:17;;;;;;;;;;;8.80;99.90;;;;;;5019924;28;19982;-87
2023/05/27 04:57:42;;;;;;;;;;;10.40;99.90;;;;;;5021817;28;19925;-87
2023/05/27 05:02:34;;;;;;;;;;;9.30;99.90;;;;;;5039111;28;19925;-87
2023/05/27 05:05:09;;;;;;;;;;;8.90;99.90;;;;;;5020855;28;19971;-88
2023/05/27 05:07:39;;;;;;;;;;;9.40;99.90;;;;;;5022388;28;19925;-86
2023/05/27 05:10:06;;;;;;;;;;;9.80;99.90;;;;;;5038618;28;19925;-87
2023/05/27 05:12:35;;;;;;;;;;;8.90;99.90;;;;;;5038525;28;19924;-87
2023/05/27 05:15:03;;;;;;;;;;;8.80;99.90;;;;;;5021462;28;20378;-87
2023/05/27 05:17:28;;;;;;;;;;;8.80;99.90;;;;;;5012351;28;20007;-86
2023/05/27 05:19:56;;;;;;;;;;;9.00;99.90;;;;;;5017648;28;20008;-87
2023/05/27 05:22:25;;;;;;;;;;;9.10;99.90;;;;;;5038353;28;19928;-87
2023/05/27 05:24:51;;;;;;;;;;;9.00;99.90;;;;;;5025144;28;19975;-87
2023/05/27 05:27:20;;;;;;;;;;;9.20;99.90;;;;;;5017191;28;19925;-87
2023/05/27 05:29:46;;;;;;;;;;;9.00;99.90;;;;;;5006545;28;19972;-87
2023/05/27 05:32:15;;;;;;;;;;;8.90;99.90;;;;;;5028555;28;19932;-87
2023/05/27 05:34:50;;;;;;;;;;;8.90;99.90;;;;;;5036457;28;19929;-87
2023/05/27 05:37:16;;;;;;;;;;;8.90;99.90;;;;;;5018220;28;19929;-87
2023/05/27 05:39:44;;;;;;;;;;;9.10;99.90;;;;;;5034614;28;19929;-87
2023/05/27 05:42:10;;;;;;;;;;;9.00;99.90;;;;;;5041452;28;19971;-87
2023/05/27 05:44:39;;;;;;;;;;;8.60;99.90;;;;;;5033188;28;19928;-87
2023/05/27 05:47:07;;;;;;;;;;;8.90;99.90;;;;;;5037947;28;19925;-89
2023/05/27 05:49:35;;;;;;;;;;;9.70;99.90;;;;;;5047569;28;19932;-87
2023/05/27 05:52:01;;;;;;;;;;;8.90;99.90;;;;;;5033920;28;19956;-88
2023/05/27 05:54:29;;;;;;;;;;;8.90;99.90;;;;;;5049218;28;19936;-87
2023/05/27 05:56:57;;;;;;;;;;;7.90;99.90;;;;;;5043441;28;19925;-87
2023/05/27 05:59:22;;;;;;;;;;;8.90;99.90;;;;;;5049394;28;19932;-88
2023/05/27 06:01:50;;;;;;;;;;;9.10;99.90;;;;;;5025069;28;19929;-87
2023/05/27 06:04:17;;;;;;;;;;;7.30;99.90;;;;;;5017788;28;20278;-87
2023/05/27 06:06:42;;;;;;;;;;;9.10;99.90;;;;;;5020686;28;19926;-87
2023/05/27 06:09:08;;;;;;;;;;;9.30;99.90;;;;;;5037389;28;19932;-87
2023/05/27 06:11:34;;;;;;;;;;;9.30;99.90;;;;;;5037827;28;20314;-87
2023/05/27 06:14:03;;;;;;;;;;;10.00;99.90;;;;;;5025178;28;20003;-87
2023/05/27 06:16:31;;;;;;;;;;;10.50;99.90;;;;;;5030031;28;19925;-87
2023/05/27 06:18:57;;;;;;;;;;;10.30;99.90;;;;;;5018593;28;19929;-87
2023/05/27 06:21:22;;;;;;;;;;;10.80;99.90;;;;;;5036369;28;19931;-87
2023/05/27 06:23:48;;;;;;;;;;;10.00;99.90;;;;;;5036134;28;19971;-87
2023/05/27 06:26:14;;;;;;;;;;;10.30;99.90;;;;;;5018717;28;20015;-87
2023/05/27 06:28:40;;;;;;;;;;;10.20;99.90;;;;;;5033199;28;19932;-87
2023/05/27 06:31:06;;;;;;;;;;;9.90;99.90;;;;;;5032413;28;20413;-85
2023/05/27 06:33:34;;;;;;;;;;;10.40;99.90;;;;;;5032184;28;19991;-86
2023/05/27 06:36:00;;;;;;;;;;;10.60;99.90;;;;;;5034742;28;20362;-87
2023/05/27 06:38:26;;;;;;;;;;;10.70;99.90;;;;;;5015001;28;19925;-87
2023/05/27 06:40:51;;;;;;;;;;;11.20;99.90;;;;;;5013808;28;19972;-87
2023/05/27 06:43:17;;;;;;;;;;;10.90;99.90;;;;;;5012628;28;19939;-87
2023/05/27 06:45:43;;;;;;;;;;;10.90;99.90;;;;;;5035146;28;19936;-88
2023/05/27 06:48:08;;;;;;;;;;;11.10;99.90;;;;;;5034921;28;19929;-86
2023/05/27 06:50:34;;;;;;;;;;;11.00;99.90;;;;;;5031199;28;19932;-87
2023/05/27 06:53:05;;;;;;;;;;;11.10;99.90;;;;;;5033336;28;19940;-86
2023/05/27 06:55:30;;;;;;;;;;;11.50;99.90;;;;;;5017537;28;19924;-86
2023/05/27 06:57:56;;;;;;;;;;;11.40;99.90;;;;;;5030732;28;19933;-86
2023/05/27 07:00:25;;;;;;;;;;;11.40;99.90;;;;;;5031732;28;19925;-86
2023/05/27 07:02:51;;;;;;;;;;;11.80;99.90;;;;;;5015933;28;19924;-87
2023/05/27 07:05:19;;;;;;;;;;;11.40;99.90;;;;;;5033332;28;19929;-87
2023/05/27 07:07:56;;;;;;;;;;;11.40;99.90;;;;;;5029969;28;19975;-87
2023/05/27 07:10:26;;;;;;;;;;;11.50;99.90;;;;;;5029059;28;20019;-86
2023/05/27 07:12:52;;;;;;;;;;;11.40;99.90;;;;;;5021865;28;20015;-87
2023/05/27 07:15:23;;;;;;;;;;;11.40;99.90;;;;;;5031685;28;20079;-86
2023/05/27 07:17:51;;;;;;;;;;;11.70;99.90;;;;;;5019895;28;19933;-87
2023/05/27 07:20:16;;;;;;;;;;;9.30;99.90;;;;;;5035286;28;19928;-87
2023/05/27 07:22:45;;;;;;;;;;;11.60;99.90;;;;;;5030331;28;19955;-86
2023/05/27 07:25:13;;;;;;;;;;;11.70;99.90;;;;;;5032717;28;19932;-87
2023/05/27 07:27:38;;;;;;;;;;;12.40;99.90;;;;;;5031297;28;19929;-85
2023/05/27 07:30:04;;;;;;;;;;;11.90;99.90;;;;;;5033565;28;19925;-86
2023/05/27 07:32:31;;;;;;;;;;;12.10;99.90;;;;;;5033357;28;19925;-86
2023/05/27 07:34:59;;;;;;;;;;;12.20;99.90;;;;;;5039600;28;19929;-86
2023/05/27 07:37:26;;;;;;;;;;;12.20;99.90;;;;;;5035284;28;19924;-86
2023/05/27 07:39:54;;;;;;;;;;;12.20;99.90;;;;;;5022329;28;19925;-85
2023/05/27 07:42:20;;;;;;;;;;;12.20;99.90;;;;;;5045383;28;19974;-86
2023/05/27 07:44:48;;;;;;;;;;;12.60;99.90;;;;;;5006497;28;19925;-86
2023/05/27 07:47:14;;;;;;;;;;;12.40;99.90;;;;;;5013536;28;19926;-87
2023/05/27 07:49:40;;;;;;;;;;;12.40;99.90;;;;;;5025908;28;19925;-86
2023/05/27 07:52:06;;;;;;;;;;;12.90;99.90;;;;;;5029142;28;20015;-86
2023/05/27 07:54:31;;;;;;;;;;;12.50;99.90;;;;;;5010330;28;19936;-85
2023/05/27 07:56:57;;;;;;;;;;;12.60;99.90;;;;;;5012960;28;19924;-85
2023/05/27 07:59:26;;;;;;;;;;;12.70;99.90;;;;;;5030086;28;19931;-87
2023/05/27 08:01:52;;;;;;;;;;;12.60;99.90;;;;;;5015478;28;20267;-86
2023/05/27 08:04:17;;;;;;;;;;;12.50;99.90;;;;;;5012815;28;20327;-86
2023/05/27 08:06:43;;;;;;;;;;;12.60;99.90;;;;;;5015221;28;19937;-86
2023/05/27 08:09:08;;;;;;;;;;;12.60;99.90;;;;;;5001639;28;20047;-86
2023/05/27 08:11:34;;;;;;;;;;;12.70;99.90;;;;;;5018885;28;19925;-86
2023/05/27 08:14:00;;;;;;;;;;;12.70;99.90;;;;;;5001235;28;19924;-86
2023/05/27 08:16:25;;;;;;;;;;;12.80;99.90;;;;;;5018152;28;20004;-86
2023/05/27 08:18:51;;;;;;;;;;;12.80;99.90;;;;;;5026401;28;19975;-87
2023/05/27 08:21:17;;;;;;;;;;;12.80;99.90;;;;;;5030784;28;20421;-86
2023/05/27 08:23:42;;;;;;;;;;;12.90;99.90;;;;;;5027637;28;19978;-86
2023/05/27 08:26:08;;;;;;;;;;;12.90;99.90;;;;;;5031296;28;19925;-87
2023/05/27 08:28:36;;;;;;;;;;;13.00;99.90;;;;;;5022665;28;19925;-86
2023/05/27 08:31:05;;;;;;;;;;;13.10;99.90;;;;;;5005947;28;19924;-85
2023/05/27 08:33:31;;;;;;;;;;;13.20;99.90;;;;;;5033781;28;19951;-88
2023/05/27 08:35:57;;;;;;;;;;;13.20;99.90;;;;;;5030616;28;19931;-86
2023/05/27 08:38:23;;;;;;;;;;;13.20;99.90;;;;;;5018594;28;19925;-86
2023/05/27 08:40:48;;;;;;;;;;;13.30;99.90;;;;;;5035321;28;20312;-86
2023/05/27 08:43:15;;;;;;;;;;;13.40;99.90;;;;;;5017359;28;19936;-86
2023/05/27 08:45:40;;;;;;;;;;;13.40;99.90;;;;;;5027932;28;20362;-86
2023/05/27 08:48:09;;;;;;;;;;;13.50;99.90;;;;;;5031450;28;19933;-85
2023/05/27 08:50:35;;;;;;;;;;;13.60;99.90;;;;;;5025311;28;19995;-86
2023/05/27 08:53:03;;;;;;;;;;;13.60;99.90;;;;;;5006754;28;20323;-86
2023/05/27 08:55:29;;;;;;;;;;;13.60;99.90;;;;;;5032886;28;20298;-87
2023/05/27 08:57:56;;;;;;;;;;;13.70;99.90;;;;;;5006951;28;19932;-86
2023/05/27 09:00:22;;;;;;;;;;;13.80;99.90;;;;;;5037661;28;20374;-86
2023/05/27 09:02:47;;;;;;;;;;;13.90;99.90;;;;;;5005977;28;19928;-87
2023/05/27 09:05:13;;;;;;;;;;;14.10;99.90;;;;;;5021326;28;19939;-87
2023/05/27 09:07:39;;;;;;;;;;;14.20;99.90;;;;;;5034490;28;19925;-87
2023/05/27 09:10:08;;;;;;;;;;;14.40;99.90;;;;;;5008025;28;19932;-88
2023/05/27 09:12:35;;;;;;;;;;;14.50;99.90;;;;;;5013455;28;19939;-88
2023/05/27 09:15:02;;;;;;;;;;;14.70;99.90;;;;;;5032309;28;19932;-87
2023/05/27 09:17:29;;;;;;;;;;;14.80;99.90;;;;;;5035255;28;19929;-86
2023/05/27 09:19:55;;;;;;;;;;;14.80;99.90;;;;;;5014278;28;19932;-86
2023/05/27 09:22:24;;;;;;;;;;;14.70;99.90;;;;;;5030865;28;19925;-85
2023/05/27 09:24:56;;;;;;;;;;;14.70;99.90;;;;;;5029669;28;19932;-86
2023/05/27 09:27:28;;;;;;;;;;;14.70;99.90;;;;;;5036396;28;19925;-86
2023/05/27 09:29:54;;;;;;;;;;;14.60;99.90;;;;;;5037575;28;20398;-88
2023/05/27 09:32:27;;;;;;;;;;;13.40;99.90;;;;;;5037154;28;19925;-87
2023/05/27 09:34:56;;;;;;;;;;;14.80;99.90;;;;;;5007163;28;19967;-88
2023/05/27 09:37:32;;;;;;;;;;;13.60;99.90;;;;;;5034307;28;19925;-88
2023/05/27 09:39:58;;;;;;;;;;;15.00;99.90;;;;;;5026137;28;20390;-87
2023/05/27 09:42:23;;;;;;;;;;;15.10;99.90;;;;;;5025285;28;19925;-86
2023/05/27 09:44:49;;;;;;;;;;;15.20;99.90;;;;;;5048344;28;19948;-87
2023/05/27 09:47:16;;;;;;;;;;;15.10;99.90;;;;;;5031927;28;19925;-85
2023/05/27 09:49:42;;;;;;;;;;;15.20;99.90;;;;;;5050656;28;19947;-85
2023/05/27 09:52:10;;;;;;;;;;;17.60;99.90;;;;;;5048467;28;19980;-87
2023/05/27 09:54:36;;;;;;;;;;;14.30;99.90;;;;;;5044916;28;20047;-86
2023/05/27 09:57:03;;;;;;;;;;;15.50;99.90;;;;;;5028697;28;19979;-86
2023/05/27 09:59:29;;;;;;;;;;;15.50;99.90;;;;;;5051107;28;19929;-85
2023/05/27 10:01:55;;;;;;;;;;;15.50;99.90;;;;;;5042820;28;20036;-86
2023/05/27 10:04:22;;;;;;;;;;;15.60;99.90;;;;;;5017428;28;19948;-86
2023/05/27 10:06:48;;;;;;;;;;;15.70;99.90;;;;;;5017794;28;20287;-87
2023/05/27 10:09:15;;;;;;;;;;;15.70;99.90;;;;;;5017836;28;19964;-87
2023/05/27 10:11:47;;;;;;;;;;;15.70;99.90;;;;;;5000183;28;19933;-90
2023/05/27 10:14:22;;;;;;;;;;;15.80;99.90;;;;;;5028014;28;19956;-88
2023/05/27 10:16:57;;;;;;;;;;;15.90;99.90;;;;;;5033523;28;19932;-89
2023/05/27 10:19:23;;;;;;;;;;;16.10;99.90;;;;;;5019902;28;19925;-86
2023/05/27 10:21:48;;;;;;;;;;;16.10;99.90;;;;;;5020504;28;19932;-88
2023/05/27 10:24:14;;;;;;;;;;;15.40;99.90;;;;;;5017889;28;19970;-87
2023/05/27 10:26:43;;;;;;;;;;;17.60;99.90;;;;;;5020722;28;19925;-86
2023/05/27 10:29:16;;;;;;;;;;;16.20;99.90;;;;;;5020408;28;19925;-88
2023/05/27 10:31:49;;;;;;;;;;;18.90;99.90;;;;;;5004522;28;20383;-87
2023/05/27 10:34:20;;;;;;;;;;;16.40;99.90;;;;;;5019703;28;20378;-88
2023/05/27 10:40:27;;;;;;;;;;;16.80;99.90;;;;;;5036716;28;19925;-91
2023/05/27 10:43:04;;;;;;;;;;;17.20;99.90;;;;;;5026721;28;20001;-89
2023/05/27 10:45:35;;;;;;;;;;;17.10;99.90;;;;;;5020837;28;20339;-86
2023/05/27 10:48:01;;;;;;;;;;;17.30;99.90;;;;;;5003315;28;19925;-87
2023/05/27 10:50:32;;;;;;;;;;;17.00;99.90;;;;;;5036144;28;19931;-87
2023/05/27 10:53:01;;;;;;;;;;;17.00;99.90;;;;;;5019011;28;19928;-87
2023/05/27 10:55:33;;;;;;;;;;;16.00;99.90;;;;;;5035869;28;19929;-87
2023/05/27 10:58:01;;;;;;;;;;;17.40;99.90;;;;;;5004920;28;19976;-86
2023/05/27 11:00:28;;;;;;;;;;;17.40;99.90;;;;;;5019989;28;19925;-86
2023/05/27 11:02:54;;;;;;;;;;;17.80;99.90;;;;;;5035505;28;20394;-88
2023/05/27 11:05:29;;;;;;;;;;;17.50;99.90;;;;;;5024982;28;19931;-89
2023/05/27 11:07:55;;;;;;;;;;;17.80;99.90;;;;;;5019667;28;20378;-86
2023/05/27 11:10:21;;;;;;;;;;;18.20;99.90;;;;;;5019376;28;19932;-87
2023/05/27 11:12:48;;;;;;;;;;;17.80;99.90;;;;;;5019826;28;19929;-86
2023/05/27 11:15:14;;;;;;;;;;;17.80;99.90;;;;;;5019768;28;19928;-87
2023/05/27 11:17:45;;;;;;;;;;;17.80;99.90;;;;;;5016502;28;19979;-87
2023/05/27 11:20:16;;;;;;;;;;;18.00;99.90;;;;;;5026774;28;19924;-87
2023/05/27 11:22:49;;;;;;;;;;;18.10;99.90;;;;;;5036817;28;19932;-87
2023/05/27 11:25:15;;;;;;;;;;;18.10;99.90;;;;;;5024924;28;19925;-87
2023/05/27 11:27:44;;;;;;;;;;;17.00;99.90;;;;;;5025220;28;19924;-86
2023/05/27 11:30:11;;;;;;;;;;;19.50;99.90;;;;;;5012129;28;19979;-88
2023/05/27 11:32:37;;;;;;;;;;;18.20;99.90;;;;;;5026382;28;19929;-87
2023/05/27 11:35:02;;;;;;;;;;;18.20;99.90;;;;;;5021739;28;19925;-85
2023/05/27 11:37:39;;;;;;;;;;;17.20;99.90;;;;;;5037412;28;19925;-87
2023/05/27 11:40:18;;;;;;;;;;;18.30;99.90;;;;;;5023277;28;19925;-88
2023/05/27 11:42:44;;;;;;;;;;;18.30;99.90;;;;;;5038618;28;19998;-87
2023/05/27 11:45:17;;;;;;;;;;;18.30;99.90;;;;;;5027402;28;20000;-87
2023/05/27 11:47:44;;;;;;;;;;;16.40;99.90;;;;;;5002078;28;19947;-86
2023/05/27 11:50:10;;;;;;;;;;;18.60;99.90;;;;;;5020410;28;19932;-88
2023/05/27 11:52:50;;;;;;;;;;;17.30;99.90;;;;;;5002942;28;19925;-84
2023/05/27 11:55:16;;;;;;;;;;;21.40;99.90;;;;;;5031745;28;20273;-86
2023/05/27 11:57:41;;;;;;;;;;;18.50;99.90;;;;;;5029801;28;19978;-87
2023/05/27 12:00:07;;;;;;;;;;;18.60;99.90;;;;;;5037431;28;19952;-86
2023/05/27 12:02:35;;;;;;;;;;;18.50;99.90;;;;;;5037231;28;20481;-85
2023/05/27 12:05:06;;;;;;;;;;;18.50;99.90;;;;;;5000048;28;19925;-90
2023/05/27 12:07:31;;;;;;;;;;;18.70;99.90;;;;;;5033644;28;19931;-87
2023/05/27 12:10:01;;;;;;;;;;;18.70;99.90;;;;;;5018238;28;19925;-87
2023/05/27 12:12:33;;;;;;;;;;;18.70;99.90;;;;;;5009361;28;19936;-88
2023/05/27 12:15:00;;;;;;;;;;;18.70;99.90;;;;;;5018734;28;20382;-87
2023/05/27 12:17:27;;;;;;;;;;;18.60;99.90;;;;;;5019439;28;20370;-86
2023/05/27 12:19:53;;;;;;;;;;;19.10;99.90;;;;;;5034601;28;19928;-87
2023/05/27 12:22:19;;;;;;;;;;;19.10;99.90;;;;;;5019135;28;20027;-87
2023/05/27 12:24:45;;;;;;;;;;;19.10;99.90;;;;;;5018706;28;19936;-85
2023/05/27 12:27:13;;;;;;;;;;;17.60;99.90;;;;;;5035736;28;19925;-86
2023/05/27 12:29:39;;;;;;;;;;;19.60;99.90;;;;;;5034788;28;20242;-86
2023/05/27 12:32:05;;;;;;;;;;;19.70;99.60;;;;;;5035336;28;19925;-86
2023/05/27 12:34:30;;;;;;;;;;;19.40;99.60;;;;;;5017613;28;19968;-88
2023/05/27 12:36:59;;;;;;;;;;;19.20;99.90;;;;;;5018554;28;19932;-87
2023/05/27 12:39:24;;;;;;;;;;;17.20;99.90;;;;;;5034991;28;20358;-87
2023/05/27 12:41:50;;;;;;;;;;;19.60;99.90;;;;;;5010028;28;19925;-85
2023/05/27 12:44:18;;;;;;;;;;;19.40;99.90;;;;;;5018255;28;19928;-88
2023/05/27 12:46:46;;;;;;;;;;;19.50;99.70;;;;;;5019053;28;19925;-87
2023/05/27 12:49:14;;;;;;;;;;;19.60;99.50;;;;;;5024996;28;19925;-85
2023/05/27 12:51:40;;;;;;;;;;;19.90;99.90;;;;;;5035272;28;19925;-86
2023/05/27 12:54:08;;;;;;;;;;;20.20;99.00;;;;;;5034421;28;20373;-86
2023/05/27 12:56:34;;;;;;;;;;;19.80;99.90;;;;;;5034961;28;19939;-86
2023/05/27 12:59:02;;;;;;;;;;;19.70;98.30;;;;;;5025759;28;19925;-86
2023/05/27 13:01:30;;;;;;;;;;;19.90;99.90;;;;;;5039005;28;19924;-86
2023/05/27 13:03:56;;;;;;;;;;;19.90;98.70;;;;;;5021026;28;19925;-86
2023/05/27 13:06:21;;;;;;;;;;;19.90;98.20;;;;;;5038602;28;19932;-86
2023/05/27 13:08:47;;;;;;;;;;;19.90;97.60;;;;;;5029723;28;19929;-86
2023/05/27 13:11:13;;;;;;;;;;;19.90;97.80;;;;;;5021637;28;19928;-87
2023/05/27 13:13:44;;;;;;;;;;;20.00;98.00;;;;;;5038346;28;20322;-88
2023/05/27 13:16:12;;;;;;;;;;;19.90;98.90;;;;;;5006308;28;19936;-87
2023/05/27 13:18:37;;;;;;;;;;;20.00;98.60;;;;;;5005847;28;20002;-88
2023/05/27 13:21:03;;;;;;;;;;;20.20;98.60;;;;;;5022675;28;19959;-87
2023/05/27 13:23:29;;;;;;;;;;;20.30;97.40;;;;;;5018678;28;19931;-86
2023/05/27 13:25:57;;;;;;;;;;;20.30;96.30;;;;;;5035086;28;20306;-87
2023/05/27 13:28:23;;;;;;;;;;;20.30;96.10;;;;;;5038409;28;20272;-88
2023/05/27 13:30:49;;;;;;;;;;;20.40;98.00;;;;;;5021828;28;19975;-87
2023/05/27 13:33:15;;;;;;;;;;;20.40;96.90;;;;;;5044370;28;19972;-86
2023/05/27 13:35:41;;;;;;;;;;;20.50;95.60;;;;;;5038738;28;19925;-87
2023/05/27 13:38:12;;;;;;;;;;;20.40;96.30;;;;;;5057870;28;19929;-89
2023/05/27 13:40:40;;;;;;;;;;;20.50;95.80;;;;;;5059513;28;19955;-86
2023/05/27 13:43:06;;;;;;;;;;;20.40;97.20;;;;;;5049687;28;19925;-86
2023/05/27 13:45:34;;;;;;;;;;;20.40;96.00;;;;;;5036717;28;19912;-87
2023/05/27 13:48:02;;;;;;;;;;;20.30;96.50;;;;;;5049833;28;19923;-87
2023/05/27 13:50:29;;;;;;;;;;;20.30;97.10;;;;;;5039663;28;20024;-87
2023/05/27 13:52:57;;;;;;;;;;;20.50;98.70;;;;;;5035250;28;19932;-88
2023/05/27 13:55:23;;;;;;;;;;;20.40;97.50;;;;;;5017849;28;19925;-86
2023/05/27 13:57:49;;;;;;;;;;;20.60;97.50;;;;;;5019045;28;19925;-88
2023/05/27 14:00:17;;;;;;;;;;;20.60;99.00;;;;;;5013513;28;19925;-88
2023/05/27 14:02:45;;;;;;;;;;;20.60;97.20;;;;;;5038433;28;19924;-87
2023/05/27 14:05:15;;;;;;;;;;;20.70;99.10;;;;;;5021296;28;19932;-87
2023/05/27 14:07:49;;;;;;;;;;;20.90;96.70;;;;;;5020940;28;19947;-88
2023/05/27 14:10:15;;;;;;;;;;;20.90;97.00;;;;;;5020906;28;19978;-88
2023/05/27 14:12:43;;;;;;;;;;;21.20;98.60;;;;;;5021281;28;20019;-88
2023/05/27 14:15:09;;;;;;;;;;;20.70;98.30;;;;;;5020025;28;20363;-87
2023/05/27 14:17:37;;;;;;;;;;;20.90;96.40;;;;;;5033291;28;19945;-88
2023/05/27 14:20:03;;;;;;;;;;;21.30;98.80;;;;;;5037632;28;19925;-88
2023/05/27 14:22:29;;;;;;;;;;;20.80;96.50;;;;;;5029411;28;20374;-85
2023/05/27 14:25:04;;;;;;;;;;;20.80;96.80;;;;;;5037456;28;19931;-87
2023/05/27 14:27:33;;;;;;;;;;;18.90;96.10;;;;;;5007132;28;19924;-86
2023/05/27 14:29:58;;;;;;;;;;;20.90;96.70;;;;;;5025377;28;20029;-87
2023/05/27 14:32:26;;;;;;;;;;;20.70;97.40;;;;;;5037712;28;19970;-86